sensor_id;sensor_type;location;lat;lon;timestamp;pressure;altitude;pressure_sealevel;temperature;humidity
71424;BME280;59240;51.370;-0.486;2023-04-07T00:00:29;101783.94;;;5.21;100.00
71424;BME280;59240;51.370;-0.486;2023-04-07T00:02:56;101797.88;;;5.31;100.00
71424;BME280;59240;51.370;-0.486;2023-04-07T00:05:29;101773.53;;;5.15;100.00
71424;BME280;59240;51.370;-0.486;2023-04-07T00:07:56;101788.22;;;5.19;100.00
71424;BME280;59240;51.370;-0.486;2023-04-07T00:10:23;101811.72;;;5.34;100.00
71424;BME280;59240;51.370;-0.486;2023-04-07T00:12:55;101798.56;;;5.19;100.00
71424;BME280;59240;51.370;-0.486;2023-04-07T00:15:22;101788.09;;;5.11;100.00
71424;BME280;59240;51.370;-0.486;2023-04-07T00:17:48;101796.78;;;5.15;100.00
71424;BME280;59240;51.370;-0.486;2023-04-07T00:20:15;101795.81;;;5.10;100.00
71424;BME280;59240;51.370;-0.486;2023-04-07T00:22:42;101807.94;;;5.14;100.00
71424;BME280;59240;51.370;-0.486;2023-04-07T00:25:11;101801.00;;;5.11;100.00
71424;BME280;59240;51.370;-0.486;2023-04-07T00:27:41;101797.34;;;4.99;100.00
71424;BME280;59240;51.370;-0.486;2023-04-07T00:30:08;101818.16;;;5.08;100.00
71424;BME280;59240;51.370;-0.486;2023-04-07T00:32:34;101809.41;;;5.00;100.00
71424;BME280;59240;51.370;-0.486;2023-04-07T00:35:02;101791.09;;;4.86;100.00
71424;BME280;59240;51.370;-0.486;2023-04-07T00:37:28;101804.09;;;4.90;100.00
71424;BME280;59240;51.370;-0.486;2023-04-07T00:39:55;101817.00;;;4.89;100.00
71424;BME280;59240;51.370;-0.486;2023-04-07T00:42:26;101809.16;;;4.84;100.00
71424;BME280;59240;51.370;-0.486;2023-04-07T00:44:53;101810.84;;;4.82;100.00
71424;BME280;59240;51.370;-0.486;2023-04-07T00:47:19;101809.09;;;4.81;100.00
71424;BME280;59240;51.370;-0.486;2023-04-07T00:49:46;101807.34;;;4.80;100.00
71424;BME280;59240;51.370;-0.486;2023-04-07T00:52:13;101808.25;;;4.82;100.00
71424;BME280;59240;51.370;-0.486;2023-04-07T00:54:43;101776.91;;;4.62;100.00
71424;BME280;59240;51.370;-0.486;2023-04-07T00:57:12;101818.50;;;4.79;100.00
71424;BME280;59240;51.370;-0.486;2023-04-07T00:59:40;101800.28;;;4.70;100.00
71424;BME280;59240;51.370;-0.486;2023-04-07T01:02:11;101791.69;;;4.71;100.00
71424;BME280;59240;51.370;-0.486;2023-04-07T01:07:28;101825.81;;;5.02;100.00
71424;BME280;59240;51.370;-0.486;2023-04-07T01:10:02;101803.22;;;4.90;100.00
71424;BME280;59240;51.370;-0.486;2023-04-07T01:12:56;101829.38;;;5.08;100.00
71424;BME280;59240;51.370;-0.486;2023-04-07T01:15:29;101796.38;;;4.93;100.00
71424;BME280;59240;51.370;-0.486;2023-04-07T01:18:23;101802.47;;;4.96;100.00
71424;BME280;59240;51.370;-0.486;2023-04-07T01:20:55;101815.50;;;5.02;100.00
71424;BME280;59240;51.370;-0.486;2023-04-07T01:26:30;101822.56;;;5.13;100.00
71424;BME280;59240;51.370;-0.486;2023-04-07T01:29:33;101826.84;;;5.13;100.00
71424;BME280;59240;51.370;-0.486;2023-04-07T01:32:04;101800.75;;;4.94;100.00
71424;BME280;59240;51.370;-0.486;2023-04-07T01:34:33;101801.53;;;4.92;100.00
71424;BME280;59240;51.370;-0.486;2023-04-07T01:37:01;101784.94;;;4.79;100.00
71424;BME280;59240;51.370;-0.486;2023-04-07T01:39:28;101823.13;;;4.96;100.00
71424;BME280;59240;51.370;-0.486;2023-04-07T01:41:56;101810.91;;;4.87;100.00
71424;BME280;59240;51.370;-0.486;2023-04-07T01:44:25;101825.75;;;4.99;100.00
71424;BME280;59240;51.370;-0.486;2023-04-07T01:46:57;101771.81;;;4.65;100.00
71424;BME280;59240;51.370;-0.486;2023-04-07T01:49:25;101830.03;;;4.97;100.00
71424;BME280;59240;51.370;-0.486;2023-04-07T01:51:53;101810.88;;;4.85;100.00
71424;BME280;59240;51.370;-0.486;2023-04-07T01:54:22;101796.94;;;4.74;100.00
71424;BME280;59240;51.370;-0.486;2023-04-07T01:56:49;101821.22;;;4.85;100.00
71424;BME280;59240;51.370;-0.486;2023-04-07T01:59:16;101810.75;;;4.79;100.00
71424;BME280;59240;51.370;-0.486;2023-04-07T02:01:42;101803.75;;;4.72;100.00
71424;BME280;59240;51.370;-0.486;2023-04-07T02:06:58;101846.25;;;4.89;100.00
71424;BME280;59240;51.370;-0.486;2023-04-07T02:09:29;101836.59;;;4.79;100.00
71424;BME280;59240;51.370;-0.486;2023-04-07T02:11:59;101831.53;;;4.85;100.00
71424;BME280;59240;51.370;-0.486;2023-04-07T02:14:26;101840.13;;;4.84;100.00
71424;BME280;59240;51.370;-0.486;2023-04-07T02:16:54;101808.72;;;4.60;100.00
71424;BME280;59240;51.370;-0.486;2023-04-07T02:19:22;101832.94;;;4.68;100.00
71424;BME280;59240;51.370;-0.486;2023-04-07T02:21:50;101831.13;;;4.64;100.00
71424;BME280;59240;51.370;-0.486;2023-04-07T02:24:20;101822.44;;;4.59;100.00
71424;BME280;59240;51.370;-0.486;2023-04-07T02:26:47;101823.22;;;4.53;100.00
71424;BME280;59240;51.370;-0.486;2023-04-07T02:29:14;101827.53;;;4.56;100.00
71424;BME280;59240;51.370;-0.486;2023-04-07T02:31:41;101824.94;;;4.54;100.00
71424;BME280;59240;51.370;-0.486;2023-04-07T02:34:08;101833.31;;;4.43;100.00
71424;BME280;59240;51.370;-0.486;2023-04-07T02:36:34;101843.88;;;4.55;100.00
71424;BME280;59240;51.370;-0.486;2023-04-07T02:39:04;101840.19;;;4.44;100.00
71424;BME280;59240;51.370;-0.486;2023-04-07T02:41:31;101841.94;;;4.45;100.00
71424;BME280;59240;51.370;-0.486;2023-04-07T02:43:57;101846.34;;;4.49;100.00
71424;BME280;59240;51.370;-0.486;2023-04-07T02:46:24;101842.88;;;4.48;100.00
71424;BME280;59240;51.370;-0.486;2023-04-07T02:48:51;101833.44;;;4.49;100.00
71424;BME280;59240;51.370;-0.486;2023-04-07T02:51:18;101827.31;;;4.44;100.00
71424;BME280;59240;51.370;-0.486;2023-04-07T02:53:44;101837.75;;;4.50;100.00
71424;BME280;59240;51.370;-0.486;2023-04-07T02:56:11;101840.28;;;4.47;100.00
71424;BME280;59240;51.370;-0.486;2023-04-07T02:58:38;101821.41;;;4.49;100.00
71424;BME280;59240;51.370;-0.486;2023-04-07T03:01:04;101823.16;;;4.52;100.00
71424;BME280;59240;51.370;-0.486;2023-04-07T03:03:31;101830.97;;;4.55;100.00
71424;BME280;59240;51.370;-0.486;2023-04-07T03:05:58;101805.88;;;4.46;100.00
71424;BME280;59240;51.370;-0.486;2023-04-07T03:08:25;101820.53;;;4.49;100.00
71424;BME280;59240;51.370;-0.486;2023-04-07T03:10:52;101838.84;;;4.62;100.00
71424;BME280;59240;51.370;-0.486;2023-04-07T03:13:19;101823.13;;;4.50;100.00
71424;BME280;59240;51.370;-0.486;2023-04-07T03:15:46;101815.28;;;4.46;100.00
71424;BME280;59240;51.370;-0.486;2023-04-07T03:18:13;101844.59;;;4.48;100.00
71424;BME280;59240;51.370;-0.486;2023-04-07T03:20:40;101840.38;;;4.53;100.00
71424;BME280;59240;51.370;-0.486;2023-04-07T03:23:07;101836.00;;;4.49;100.00
71424;BME280;59240;51.370;-0.486;2023-04-07T03:25:34;101830.84;;;4.49;100.00
71424;BME280;59240;51.370;-0.486;2023-04-07T03:28:01;101850.78;;;4.57;100.00
71424;BME280;59240;51.370;-0.486;2023-04-07T03:30:28;101854.25;;;4.58;100.00
71424;BME280;59240;51.370;-0.486;2023-04-07T03:32:54;101838.56;;;4.47;100.00
71424;BME280;59240;51.370;-0.486;2023-04-07T03:35:21;101823.75;;;4.38;100.00
71424;BME280;59240;51.370;-0.486;2023-04-07T03:37:48;101855.69;;;4.45;100.00
71424;BME280;59240;51.370;-0.486;2023-04-07T03:40:15;101825.25;;;4.27;100.00
71424;BME280;59240;51.370;-0.486;2023-04-07T03:42:42;101832.03;;;4.22;100.00
71424;BME280;59240;51.370;-0.486;2023-04-07T03:45:08;101845.25;;;4.39;100.00
71424;BME280;59240;51.370;-0.486;2023-04-07T03:47:35;101823.19;;;4.11;100.00
71424;BME280;59240;51.370;-0.486;2023-04-07T03:50:02;101803.31;;;4.05;100.00
71424;BME280;59240;51.370;-0.486;2023-04-07T03:52:29;101850.03;;;4.19;100.00
71424;BME280;59240;51.370;-0.486;2023-04-07T03:54:56;101838.63;;;4.09;100.00
71424;BME280;59240;51.370;-0.486;2023-04-07T03:57:22;101874.25;;;4.26;100.00
71424;BME280;59240;51.370;-0.486;2023-04-07T03:59:49;101835.03;;;4.03;100.00
71424;BME280;59240;51.370;-0.486;2023-04-07T04:02:17;101871.81;;;4.33;100.00
71424;BME280;59240;51.370;-0.486;2023-04-07T04:04:44;101861.22;;;4.20;100.00
71424;BME280;59240;51.370;-0.486;2023-04-07T04:07:11;101854.06;;;4.08;100.00
71424;BME280;59240;51.370;-0.486;2023-04-07T04:09:38;101866.09;;;4.07;100.00
71424;BME280;59240;51.370;-0.486;2023-04-07T04:12:05;101867.00;;;4.09;100.00
71424;BME280;59240;51.370;-0.486;2023-04-07T04:14:32;101861.81;;;4.08;100.00
71424;BME280;59240;51.370;-0.486;2023-04-07T04:16:58;101859.09;;;4.02;100.00
71424;BME280;59240;51.370;-0.486;2023-04-07T04:19:25;101852.94;;;3.95;100.00
71424;BME280;59240;51.370;-0.486;2023-04-07T04:21:52;101867.47;;;3.92;100.00
71424;BME280;59240;51.370;-0.486;2023-04-07T04:24:21;101844.97;;;3.84;100.00
71424;BME280;59240;51.370;-0.486;2023-04-07T04:26:47;101845.69;;;3.79;100.00
71424;BME280;59240;51.370;-0.486;2023-04-07T04:29:14;101859.53;;;3.84;100.00
71424;BME280;59240;51.370;-0.486;2023-04-07T04:31:40;101882.94;;;3.92;100.00
71424;BME280;59240;51.370;-0.486;2023-04-07T04:34:07;101861.75;;;3.67;100.00
71424;BME280;59240;51.370;-0.486;2023-04-07T04:36:34;101890.34;;;3.78;100.00
71424;BME280;59240;51.370;-0.486;2023-04-07T04:39:03;101875.38;;;3.63;100.00
71424;BME280;59240;51.370;-0.486;2023-04-07T04:41:30;101873.47;;;3.56;100.00
71424;BME280;59240;51.370;-0.486;2023-04-07T04:43:57;101864.84;;;3.54;100.00
71424;BME280;59240;51.370;-0.486;2023-04-07T04:46:24;101901.13;;;3.63;100.00
71424;BME280;59240;51.370;-0.486;2023-04-07T04:48:50;101881.91;;;3.49;100.00
71424;BME280;59240;51.370;-0.486;2023-04-07T04:51:18;101891.28;;;3.45;100.00
71424;BME280;59240;51.370;-0.486;2023-04-07T04:53:45;101888.50;;;3.38;100.00
71424;BME280;59240;51.370;-0.486;2023-04-07T04:56:11;101892.84;;;3.40;100.00
71424;BME280;59240;51.370;-0.486;2023-04-07T04:58:38;101886.69;;;3.34;100.00
71424;BME280;59240;51.370;-0.486;2023-04-07T05:01:12;101875.16;;;3.19;100.00
71424;BME280;59240;51.370;-0.486;2023-04-07T05:03:39;101882.81;;;3.16;100.00
71424;BME280;59240;51.370;-0.486;2023-04-07T05:06:06;101904.44;;;3.23;100.00
71424;BME280;59240;51.370;-0.486;2023-04-07T05:08:33;101894.59;;;3.08;100.00
71424;BME280;59240;51.370;-0.486;2023-04-07T05:10:59;101920.84;;;3.26;100.00
71424;BME280;59240;51.370;-0.486;2023-04-07T05:13:26;101909.44;;;3.17;100.00
71424;BME280;59240;51.370;-0.486;2023-04-07T05:15:56;101908.47;;;3.13;100.00
71424;BME280;59240;51.370;-0.486;2023-04-07T05:18:25;101925.66;;;3.14;100.00
71424;BME280;59240;51.370;-0.486;2023-04-07T05:20:51;101929.22;;;3.19;100.00
71424;BME280;59240;51.370;-0.486;2023-04-07T05:23:18;101903.72;;;2.95;100.00
71424;BME280;59240;51.370;-0.486;2023-04-07T05:25:45;101901.88;;;2.91;100.00
71424;BME280;59240;51.370;-0.486;2023-04-07T05:28:12;101934.91;;;3.08;100.00
71424;BME280;59240;51.370;-0.486;2023-04-07T05:30:38;101928.78;;;3.03;100.00
71424;BME280;59240;51.370;-0.486;2023-04-07T05:33:06;101914.75;;;2.91;100.00
71424;BME280;59240;51.370;-0.486;2023-04-07T05:35:32;101956.63;;;3.16;100.00
71424;BME280;59240;51.370;-0.486;2023-04-07T05:37:59;101933.97;;;3.04;100.00
71424;BME280;59240;51.370;-0.486;2023-04-07T05:40:27;101930.41;;;2.99;100.00
71424;BME280;59240;51.370;-0.486;2023-04-07T05:42:54;101892.91;;;2.77;100.00
71424;BME280;59240;51.370;-0.486;2023-04-07T05:45:20;101932.31;;;3.06;100.00
71424;BME280;59240;51.370;-0.486;2023-04-07T05:47:47;101938.44;;;3.10;100.00
71424;BME280;59240;51.370;-0.486;2023-04-07T05:50:16;101907.97;;;2.95;100.00
71424;BME280;59240;51.370;-0.486;2023-04-07T05:52:43;101949.81;;;3.19;100.00
71424;BME280;59240;51.370;-0.486;2023-04-07T05:55:10;101930.81;;;3.14;100.00
71424;BME280;59240;51.370;-0.486;2023-04-07T05:57:37;101932.72;;;3.21;100.00
71424;BME280;59240;51.370;-0.486;2023-04-07T06:00:05;101926.72;;;3.22;100.00
71424;BME280;59240;51.370;-0.486;2023-04-07T06:02:32;101960.78;;;3.44;100.00
71424;BME280;59240;51.370;-0.486;2023-04-07T06:04:59;101949.69;;;3.46;100.00
71424;BME280;59240;51.370;-0.486;2023-04-07T06:07:26;101947.34;;;3.55;100.00
71424;BME280;59240;51.370;-0.486;2023-04-07T06:09:53;101952.94;;;3.72;100.00
71424;BME280;59240;51.370;-0.486;2023-04-07T06:12:19;101986.19;;;3.98;100.00
71424;BME280;59240;51.370;-0.486;2023-04-07T06:14:52;101928.22;;;3.80;100.00
71424;BME280;59240;51.370;-0.486;2023-04-07T06:17:23;101930.31;;;3.97;100.00
71424;BME280;59240;51.370;-0.486;2023-04-07T06:19:52;101965.38;;;4.26;100.00
71424;BME280;59240;51.370;-0.486;2023-04-07T06:22:19;101957.84;;;4.35;100.00
71424;BME280;59240;51.370;-0.486;2023-04-07T06:24:46;101934.56;;;4.32;100.00
71424;BME280;59240;51.370;-0.486;2023-04-07T06:27:12;101951.22;;;4.47;100.00
71424;BME280;59240;51.370;-0.486;2023-04-07T06:29:39;101936.81;;;4.56;100.00
71424;BME280;59240;51.370;-0.486;2023-04-07T06:32:06;101962.22;;;4.80;100.00
71424;BME280;59240;51.370;-0.486;2023-04-07T06:34:36;101960.63;;;4.85;100.00
71424;BME280;59240;51.370;-0.486;2023-04-07T06:37:04;101969.59;;;5.03;100.00
71424;BME280;59240;51.370;-0.486;2023-04-07T06:39:35;101961.97;;;5.09;100.00
71424;BME280;59240;51.370;-0.486;2023-04-07T06:42:04;101962.00;;;5.10;100.00
71424;BME280;59240;51.370;-0.486;2023-04-07T06:44:31;101957.81;;;5.17;100.00
71424;BME280;59240;51.370;-0.486;2023-04-07T06:46:58;101975.28;;;5.30;100.00
71424;BME280;59240;51.370;-0.486;2023-04-07T06:49:27;101988.44;;;5.42;100.00
71424;BME280;59240;51.370;-0.486;2023-04-07T06:51:54;101965.97;;;5.38;100.00
71424;BME280;59240;51.370;-0.486;2023-04-07T06:54:20;101979.97;;;5.49;100.00
71424;BME280;59240;51.370;-0.486;2023-04-07T06:56:47;101968.69;;;5.47;100.00
71424;BME280;59240;51.370;-0.486;2023-04-07T06:59:14;101976.63;;;5.57;100.00
71424;BME280;59240;51.370;-0.486;2023-04-07T07:01:41;101974.94;;;5.59;100.00
71424;BME280;59240;51.370;-0.486;2023-04-07T07:04:09;101997.56;;;5.70;100.00
71424;BME280;59240;51.370;-0.486;2023-04-07T07:06:36;101977.69;;;5.68;100.00
71424;BME280;59240;51.370;-0.486;2023-04-07T07:09:03;101998.72;;;5.89;100.00
71424;BME280;59240;51.370;-0.486;2023-04-07T07:11:30;101993.56;;;5.89;100.00
71424;BME280;59240;51.370;-0.486;2023-04-07T07:13:56;102012.03;;;6.11;100.00
71424;BME280;59240;51.370;-0.486;2023-04-07T07:16:23;101988.75;;;6.11;100.00
71424;BME280;59240;51.370;-0.486;2023-04-07T07:18:51;101968.88;;;6.05;100.00
71424;BME280;59240;51.370;-0.486;2023-04-07T07:21:18;101981.16;;;6.21;100.00
71424;BME280;59240;51.370;-0.486;2023-04-07T07:23:44;102030.06;;;6.61;100.00
71424;BME280;59240;51.370;-0.486;2023-04-07T07:29:43;102013.94;;;6.80;100.00
71424;BME280;59240;51.370;-0.486;2023-04-07T07:32:22;102025.38;;;6.96;100.00
71424;BME280;59240;51.370;-0.486;2023-04-07T07:34:51;102029.00;;;7.08;100.00
71424;BME280;59240;51.370;-0.486;2023-04-07T07:37:25;102025.69;;;7.22;100.00
71424;BME280;59240;51.370;-0.486;2023-04-07T07:39:54;102023.22;;;7.34;100.00
71424;BME280;59240;51.370;-0.486;2023-04-07T07:42:21;102014.66;;;7.39;100.00
71424;BME280;59240;51.370;-0.486;2023-04-07T07:44:48;102030.41;;;7.56;100.00
71424;BME280;59240;51.370;-0.486;2023-04-07T07:47:46;102034.09;;;7.80;100.00
71424;BME280;59240;51.370;-0.486;2023-04-07T07:50:33;102003.91;;;7.89;100.00
71424;BME280;59240;51.370;-0.486;2023-04-07T07:53:09;102033.56;;;8.20;100.00
71424;BME280;59240;51.370;-0.486;2023-04-07T07:55:36;102025.06;;;8.37;100.00
71424;BME280;59240;51.370;-0.486;2023-04-07T07:58:06;102005.19;;;8.42;100.00
71424;BME280;59240;51.370;-0.486;2023-04-07T08:00:32;102031.34;;;8.66;100.00
71424;BME280;59240;51.370;-0.486;2023-04-07T08:03:01;102029.66;;;8.74;100.00
71424;BME280;59240;51.370;-0.486;2023-04-07T08:05:29;102014.06;;;8.74;100.00
71424;BME280;59240;51.370;-0.486;2023-04-07T08:07:57;102017.63;;;8.95;100.00
71424;BME280;59240;51.370;-0.486;2023-04-07T08:10:25;102033.31;;;9.16;100.00
71424;BME280;59240;51.370;-0.486;2023-04-07T08:12:54;102038.59;;;9.35;100.00
71424;BME280;59240;51.370;-0.486;2023-04-07T08:15:24;102008.22;;;9.29;100.00
71424;BME280;59240;51.370;-0.486;2023-04-07T08:18:09;102009.97;;;9.39;100.00
71424;BME280;59240;51.370;-0.486;2023-04-07T08:20:49;102016.09;;;9.47;100.00
71424;BME280;59240;51.370;-0.486;2023-04-07T08:23:27;102046.47;;;9.77;100.00
71424;BME280;59240;51.370;-0.486;2023-04-07T08:25:54;102046.50;;;9.91;100.00
71424;BME280;59240;51.370;-0.486;2023-04-07T08:28:24;102044.78;;;10.02;100.00
71424;BME280;59240;51.370;-0.486;2023-04-07T08:30:57;102021.34;;;10.04;100.00
71424;BME280;59240;51.370;-0.486;2023-04-07T08:33:25;102047.38;;;10.16;100.00
71424;BME280;59240;51.370;-0.486;2023-04-07T08:35:54;102044.78;;;10.28;100.00
71424;BME280;59240;51.370;-0.486;2023-04-07T08:38:23;102028.28;;;10.34;100.00
71424;BME280;59240;51.370;-0.486;2023-04-07T08:41:02;102037.81;;;10.49;100.00
71424;BME280;59240;51.370;-0.486;2023-04-07T08:43:56;102030.03;;;10.47;100.00
71424;BME280;59240;51.370;-0.486;2023-04-07T08:46:24;102037.81;;;10.59;100.00
71424;BME280;59240;51.370;-0.486;2023-04-07T08:48:55;102049.06;;;10.75;100.00
71424;BME280;59240;51.370;-0.486;2023-04-07T08:51:46;102041.25;;;10.84;100.00
71424;BME280;59240;51.370;-0.486;2023-04-07T08:54:15;102021.25;;;10.86;100.00
71424;BME280;59240;51.370;-0.486;2023-04-07T08:56:44;102040.28;;;11.13;100.00
71424;BME280;59240;51.370;-0.486;2023-04-07T08:59:14;102054.13;;;11.24;100.00
71424;BME280;59240;51.370;-0.486;2023-04-07T09:01:41;102045.38;;;11.31;100.00
71424;BME280;59240;51.370;-0.486;2023-04-07T09:04:15;102036.72;;;11.29;100.00
71424;BME280;59240;51.370;-0.486;2023-04-07T09:06:52;102040.94;;;11.51;100.00
71424;BME280;59240;51.370;-0.486;2023-04-07T09:09:21;102039.97;;;11.65;100.00
71424;BME280;59240;51.370;-0.486;2023-04-07T09:12:06;102046.88;;;11.81;100.00
71424;BME280;59240;51.370;-0.486;2023-04-07T09:14:34;102045.88;;;11.99;100.00
71424;BME280;59240;51.370;-0.486;2023-04-07T09:17:07;102043.19;;;12.07;100.00
71424;BME280;59240;51.370;-0.486;2023-04-07T09:19:45;102018.81;;;12.08;100.00
71424;BME280;59240;51.370;-0.486;2023-04-07T09:22:42;102050.84;;;12.28;100.00
71424;BME280;59240;51.370;-0.486;2023-04-07T09:25:38;102069.75;;;12.59;100.00
71424;BME280;59240;51.370;-0.486;2023-04-07T09:28:06;102028.84;;;12.53;100.00
71424;BME280;59240;51.370;-0.486;2023-04-07T09:30:37;102026.09;;;12.67;100.00
71424;BME280;59240;51.370;-0.486;2023-04-07T09:33:15;102056.28;;;12.97;100.00
71424;BME280;59240;51.370;-0.486;2023-04-07T09:35:51;102060.38;;;13.17;100.00
71424;BME280;59240;51.370;-0.486;2023-04-07T09:38:29;102028.19;;;13.11;100.00
71424;BME280;59240;51.370;-0.486;2023-04-07T09:45:00;102037.41;;;13.43;100.00
71424;BME280;59240;51.370;-0.486;2023-04-07T09:51:30;102033.38;;;13.81;100.00
71424;BME280;59240;51.370;-0.486;2023-04-07T09:54:05;102032.31;;;13.91;100.00
71424;BME280;59240;51.370;-0.486;2023-04-07T09:56:32;102047.56;;;14.21;100.00
71424;BME280;59240;51.370;-0.486;2023-04-07T09:59:17;102043.84;;;14.35;100.00
71424;BME280;59240;51.370;-0.486;2023-04-07T10:01:57;102033.28;;;14.38;100.00
71424;BME280;59240;51.370;-0.486;2023-04-07T10:04:29;102024.34;;;14.51;100.00
71424;BME280;59240;51.370;-0.486;2023-04-07T10:07:25;102055.00;;;14.94;100.00
71424;BME280;59240;51.370;-0.486;2023-04-07T10:10:20;102030.34;;;15.01;100.00
71424;BME280;59240;51.370;-0.486;2023-04-07T10:13:18;102039.75;;;15.13;100.00
71424;BME280;59240;51.370;-0.486;2023-04-07T10:22:30;102038.91;;;15.52;100.00
71424;BME280;59240;51.370;-0.486;2023-04-07T10:26:11;102026.97;;;15.76;100.00
71424;BME280;59240;51.370;-0.486;2023-04-07T10:32:49;102044.31;;;15.83;100.00
71424;BME280;59240;51.370;-0.486;2023-04-07T10:38:41;101991.63;;;15.90;100.00
71424;BME280;59240;51.370;-0.486;2023-04-07T10:42:43;101997.13;;;16.14;100.00
71424;BME280;59240;51.370;-0.486;2023-04-07T10:54:26;102007.00;;;16.39;100.00
71424;BME280;59240;51.370;-0.486;2023-04-07T11:04:01;102035.00;;;15.70;87.09
71424;BME280;59240;51.370;-0.486;2023-04-07T11:10:20;101982.25;;;15.79;100.00
71424;BME280;59240;51.370;-0.486;2023-04-07T11:16:40;101970.03;;;16.11;100.00
71424;BME280;59240;51.370;-0.486;2023-04-07T11:19:30;102003.41;;;16.09;100.00
71424;BME280;59240;51.370;-0.486;2023-04-07T11:22:36;102052.44;;;16.10;100.00
71424;BME280;59240;51.370;-0.486;2023-04-07T11:25:19;101971.88;;;15.35;84.19
71424;BME280;59240;51.370;-0.486;2023-04-07T11:27:47;101963.66;;;15.11;81.76
71424;BME280;59240;51.370;-0.486;2023-04-07T11:30:15;102003.47;;;15.31;81.71
71424;BME280;59240;51.370;-0.486;2023-04-07T11:32:47;102019.47;;;15.59;87.27
71424;BME280;59240;51.370;-0.486;2023-04-07T11:35:14;102004.94;;;15.45;81.11
71424;BME280;59240;51.370;-0.486;2023-04-07T11:37:41;102011.44;;;15.27;82.45
71424;BME280;59240;51.370;-0.486;2023-04-07T11:40:09;101992.22;;;14.85;80.63
71424;BME280;59240;51.370;-0.486;2023-04-07T11:42:45;102016.53;;;14.93;80.02
71424;BME280;59240;51.370;-0.486;2023-04-07T11:45:41;101974.47;;;14.96;80.93
71424;BME280;59240;51.370;-0.486;2023-04-07T11:48:28;102021.13;;;15.64;100.00
71424;BME280;59240;51.370;-0.486;2023-04-07T11:51:02;102026.41;;;16.01;79.42
71424;BME280;59240;51.370;-0.486;2023-04-07T11:53:35;102013.31;;;16.33;97.45
71424;BME280;59240;51.370;-0.486;2023-04-07T11:56:09;102001.38;;;16.20;80.28
71424;BME280;59240;51.370;-0.486;2023-04-07T11:58:54;102004.25;;;16.09;80.50
71424;BME280;59240;51.370;-0.486;2023-04-07T12:01:24;102044.63;;;16.42;80.90
71424;BME280;59240;51.370;-0.486;2023-04-07T12:04:11;102003.09;;;16.21;93.63
71424;BME280;59240;51.370;-0.486;2023-04-07T12:06:48;101993.34;;;16.25;79.09
71424;BME280;59240;51.370;-0.486;2023-04-07T12:09:33;102024.75;;;16.63;98.48
71424;BME280;59240;51.370;-0.486;2023-04-07T12:12:05;101993.06;;;16.68;78.43
71424;BME280;59240;51.370;-0.486;2023-04-07T12:14:37;102019.28;;;17.04;74.29
71424;BME280;59240;51.370;-0.486;2023-04-07T12:17:21;102006.91;;;17.06;90.21
71424;BME280;59240;51.370;-0.486;2023-04-07T12:19:54;101986.72;;;16.77;73.59
71424;BME280;59240;51.370;-0.486;2023-04-07T12:22:22;102031.06;;;16.90;72.94
71424;BME280;59240;51.370;-0.486;2023-04-07T12:25:01;101970.09;;;16.42;73.42
71424;BME280;59240;51.370;-0.486;2023-04-07T12:27:31;102019.22;;;16.74;75.02
71424;BME280;59240;51.370;-0.486;2023-04-07T12:30:08;101975.81;;;16.58;73.37
71424;BME280;59240;51.370;-0.486;2023-04-07T12:32:38;101995.13;;;16.57;72.64
71424;BME280;59240;51.370;-0.486;2023-04-07T12:35:06;101986.09;;;16.65;75.40
71424;BME280;59240;51.370;-0.486;2023-04-07T12:37:47;101974.34;;;16.48;72.74
71424;BME280;59240;51.370;-0.486;2023-04-07T12:40:20;101986.25;;;16.61;72.58
71424;BME280;59240;51.370;-0.486;2023-04-07T12:42:50;101989.28;;;16.78;74.11
71424;BME280;59240;51.370;-0.486;2023-04-07T12:45:19;101994.78;;;16.69;71.85
71424;BME280;59240;51.370;-0.486;2023-04-07T12:47:50;102014.84;;;16.75;72.01
71424;BME280;59240;51.370;-0.486;2023-04-07T12:50:17;101984.25;;;16.69;71.46
71424;BME280;59240;51.370;-0.486;2023-04-07T12:52:44;101992.56;;;16.86;70.83
71424;BME280;59240;51.370;-0.486;2023-04-07T12:55:17;102036.22;;;17.25;71.72
71424;BME280;59240;51.370;-0.486;2023-04-07T12:57:44;101996.22;;;17.12;73.57
71424;BME280;59240;51.370;-0.486;2023-04-07T13:00:21;101968.34;;;17.05;72.49
71424;BME280;59240;51.370;-0.486;2023-04-07T13:03:01;101966.34;;;16.83;89.40
71424;BME280;59240;51.370;-0.486;2023-04-07T13:05:34;101978.88;;;16.75;73.09
71424;BME280;59240;51.370;-0.486;2023-04-07T13:08:03;102012.56;;;16.61;73.55
71424;BME280;59240;51.370;-0.486;2023-04-07T13:10:37;102010.47;;;16.39;72.87
71424;BME280;59240;51.370;-0.486;2023-04-07T13:16:28;101973.84;;;15.64;81.64
71424;BME280;59240;51.370;-0.486;2023-04-07T13:18:59;102002.78;;;15.62;73.72
71424;BME280;59240;51.370;-0.486;2023-04-07T13:21:33;102024.00;;;15.53;73.93
71424;BME280;59240;51.370;-0.486;2023-04-07T13:24:19;102011.91;;;15.46;75.29
71424;BME280;59240;51.370;-0.486;2023-04-07T13:26:47;102024.00;;;15.53;74.44
71424;BME280;59240;51.370;-0.486;2023-04-07T13:29:17;102033.22;;;15.71;74.62
71424;BME280;59240;51.370;-0.486;2023-04-07T13:31:46;101953.91;;;15.55;73.15
71424;BME280;59240;51.370;-0.486;2023-04-07T13:34:15;101976.31;;;16.05;71.67
71424;BME280;59240;51.370;-0.486;2023-04-07T13:36:54;101995.34;;;16.49;71.45
71424;BME280;59240;51.370;-0.486;2023-04-07T13:39:44;101970.09;;;16.42;95.23
71424;BME280;59240;51.370;-0.486;2023-04-07T13:42:51;101958.03;;;16.66;99.97
71424;BME280;59240;51.370;-0.486;2023-04-07T13:52:38;101976.88;;;16.18;89.82
71424;BME280;59240;51.370;-0.486;2023-04-07T13:55:11;101982.81;;;15.92;86.16
71424;BME280;59240;51.370;-0.486;2023-04-07T13:57:50;101980.69;;;15.71;73.91
71424;BME280;59240;51.370;-0.486;2023-04-07T14:00:20;101954.81;;;15.54;71.70
71424;BME280;59240;51.370;-0.486;2023-04-07T14:02:51;101959.66;;;15.33;72.07
71424;BME280;59240;51.370;-0.486;2023-04-07T14:05:21;101957.44;;;15.17;84.92
71424;BME280;59240;51.370;-0.486;2023-04-07T14:07:51;101975.13;;;15.07;71.92